sensor_id;sensor_type;location;lat;lon;timestamp;temperature;humidity
54796;DHT22;40693;43.884;20.340;2023-03-14T00:06:07;179.90;2252.80
54796;DHT22;40693;43.884;20.340;2023-03-14T00:08:34;179.80;2227.20
54796;DHT22;40693;43.884;20.340;2023-03-14T00:14:42;179.80;2252.80
54796;DHT22;40693;43.884;20.340;2023-03-14T00:20:28;179.70;2252.80
54796;DHT22;40693;43.884;20.340;2023-03-14T00:23:36;179.70;2252.80
54796;DHT22;40693;43.884;20.340;2023-03-14T00:29:27;179.60;2252.80
54796;DHT22;40693;43.884;20.340;2023-03-14T00:32:24;179.50;2252.80
54796;DHT22;40693;43.884;20.340;2023-03-14T00:34:49;179.40;2252.80
54796;DHT22;40693;43.884;20.340;2023-03-14T00:40:42;179.40;2252.80
54796;DHT22;40693;43.884;20.340;2023-03-14T00:43:07;179.40;2252.80
54796;DHT22;40693;43.884;20.340;2023-03-14T00:46:17;179.30;2252.80
54796;DHT22;40693;43.884;20.340;2023-03-14T00:48:44;179.30;2252.80
54796;DHT22;40693;43.884;20.340;2023-03-14T00:54:17;179.30;2252.80
54796;DHT22;40693;43.884;20.340;2023-03-14T00:56:42;179.20;2252.80
54796;DHT22;40693;43.884;20.340;2023-03-14T00:59:08;179.20;2252.80
54796;DHT22;40693;43.884;20.340;2023-03-14T01:01:47;179.20;2252.80
54796;DHT22;40693;43.884;20.340;2023-03-14T01:04:13;179.20;2252.80
54796;DHT22;40693;43.884;20.340;2023-03-14T01:06:39;154.50;2252.80
54796;DHT22;40693;43.884;20.340;2023-03-14T01:09:05;154.50;2252.80
54796;DHT22;40693;43.884;20.340;2023-03-14T01:12:31;154.50;2252.80
54796;DHT22;40693;43.884;20.340;2023-03-14T01:14:44;154.40;2252.80
54796;DHT22;40693;43.884;20.340;2023-03-14T01:17:09;154.30;2252.80
54796;DHT22;40693;43.884;20.340;2023-03-14T01:22:51;154.10;2252.80
54796;DHT22;40693;43.884;20.340;2023-03-14T01:28:43;154.00;2252.80
54796;DHT22;40693;43.884;20.340;2023-03-14T01:31:14;153.80;2252.80
54796;DHT22;40693;43.884;20.340;2023-03-14T01:33:41;153.80;2252.80
54796;DHT22;40693;43.884;20.340;2023-03-14T01:36:20;153.70;2252.80
54796;DHT22;40693;43.884;20.340;2023-03-14T01:38:45;153.80;2252.80
54796;DHT22;40693;43.884;20.340;2023-03-14T01:41:17;153.80;2252.80
54796;DHT22;40693;43.884;20.340;2023-03-14T01:44:01;153.70;2252.80
54796;DHT22;40693;43.884;20.340;2023-03-14T01:46:42;153.80;2252.80
54796;DHT22;40693;43.884;20.340;2023-03-14T01:52:59;153.90;2252.80
54796;DHT22;40693;43.884;20.340;2023-03-14T01:55:50;153.90;2252.80
54796;DHT22;40693;43.884;20.340;2023-03-14T01:58:39;153.90;2252.80
54796;DHT22;40693;43.884;20.340;2023-03-14T02:01:23;153.90;2252.80
54796;DHT22;40693;43.884;20.340;2023-03-14T02:03:53;153.90;2252.80
54796;DHT22;40693;43.884;20.340;2023-03-14T02:06:25;153.90;2252.80
54796;DHT22;40693;43.884;20.340;2023-03-14T02:13:03;153.80;2252.80
54796;DHT22;40693;43.884;20.340;2023-03-14T02:15:42;153.80;2252.80
54796;DHT22;40693;43.884;20.340;2023-03-14T02:18:31;128.50;2252.80
54796;DHT22;40693;43.884;20.340;2023-03-14T02:24:27;153.80;2252.80
54796;DHT22;40693;43.884;20.340;2023-03-14T02:27:13;153.80;2252.80
54796;DHT22;40693;43.884;20.340;2023-03-14T02:30:21;153.80;2252.80
54796;DHT22;40693;43.884;20.340;2023-03-14T02:33:16;153.70;2252.80
54796;DHT22;40693;43.884;20.340;2023-03-14T02:35:49;153.70;2252.80
54796;DHT22;40693;43.884;20.340;2023-03-14T02:41:21;153.70;2252.80
54796;DHT22;40693;43.884;20.340;2023-03-14T02:43:52;153.70;2252.80
54796;DHT22;40693;43.884;20.340;2023-03-14T02:46:20;153.70;2252.80
54796;DHT22;40693;43.884;20.340;2023-03-14T02:49:05;153.70;2252.80
54796;DHT22;40693;43.884;20.340;2023-03-14T02:58:01;153.60;2252.80
54796;DHT22;40693;43.884;20.340;2023-03-14T03:00:43;128.90;2252.80
54796;DHT22;40693;43.884;20.340;2023-03-14T03:03:09;128.90;2252.80
54796;DHT22;40693;43.884;20.340;2023-03-14T03:05:35;128.90;2252.80
54796;DHT22;40693;43.884;20.340;2023-03-14T03:11:12;128.80;2252.80
54796;DHT22;40693;43.884;20.340;2023-03-14T03:13:38;128.80;2252.80
54796;DHT22;40693;43.884;20.340;2023-03-14T03:19:42;128.90;2252.80
54796;DHT22;40693;43.884;20.340;2023-03-14T03:22:08;128.90;2252.80
54796;DHT22;40693;43.884;20.340;2023-03-14T03:24:33;128.90;2252.80
54796;DHT22;40693;43.884;20.340;2023-03-14T03:27:32;128.80;2252.80
54796;DHT22;40693;43.884;20.340;2023-03-14T03:30:12;128.90;2252.80
54796;DHT22;40693;43.884;20.340;2023-03-14T03:32:41;128.80;2252.80
54796;DHT22;40693;43.884;20.340;2023-03-14T03:35:07;128.80;2252.80
54796;DHT22;40693;43.884;20.340;2023-03-14T03:38:08;128.80;2252.80
54796;DHT22;40693;43.884;20.340;2023-03-14T03:40:33;128.80;2252.80
54796;DHT22;40693;43.884;20.340;2023-03-14T03:42:59;128.80;2252.80
54796;DHT22;40693;43.884;20.340;2023-03-14T03:45:26;128.80;2252.80
54796;DHT22;40693;43.884;20.340;2023-03-14T03:48:13;128.70;2252.80
54796;DHT22;40693;43.884;20.340;2023-03-14T03:51:31;128.70;2252.80
54796;DHT22;40693;43.884;20.340;2023-03-14T03:54:05;128.60;2252.80
54796;DHT22;40693;43.884;20.340;2023-03-14T03:56:42;128.60;2252.80
54796;DHT22;40693;43.884;20.340;2023-03-14T03:59:35;128.60;2252.80
54796;DHT22;40693;43.884;20.340;2023-03-14T04:02:07;128.60;2252.80
54796;DHT22;40693;43.884;20.340;2023-03-14T04:04:33;128.40;2252.80
54796;DHT22;40693;43.884;20.340;2023-03-14T04:06:58;128.30;2252.80
54796;DHT22;40693;43.884;20.340;2023-03-14T04:09:24;128.70;2252.80
54796;DHT22;40693;43.884;20.340;2023-03-14T04:11:50;128.70;2252.80
54796;DHT22;40693;43.884;20.340;2023-03-14T04:14:55;128.70;2252.80
54796;DHT22;40693;43.884;20.340;2023-03-14T04:20:38;128.60;2252.80
54796;DHT22;40693;43.884;20.340;2023-03-14T04:23:04;128.60;2252.80
54796;DHT22;40693;43.884;20.340;2023-03-14T04:25:30;128.60;2252.80
54796;DHT22;40693;43.884;20.340;2023-03-14T04:31:49;128.60;2252.80
54796;DHT22;40693;43.884;20.340;2023-03-14T04:37:22;128.70;2252.80
54796;DHT22;40693;43.884;20.340;2023-03-14T04:40:03;128.60;2252.80
54796;DHT22;40693;43.884;20.340;2023-03-14T04:43:19;128.50;2252.80
54796;DHT22;40693;43.884;20.340;2023-03-14T04:45:50;128.50;2252.80
54796;DHT22;40693;43.884;20.340;2023-03-14T04:48:42;128.50;2252.80
54796;DHT22;40693;43.884;20.340;2023-03-14T04:51:23;128.40;2252.80
54796;DHT22;40693;43.884;20.340;2023-03-14T04:53:55;128.40;2252.80
54796;DHT22;40693;43.884;20.340;2023-03-14T04:56:47;128.40;2252.80
54796;DHT22;40693;43.884;20.340;2023-03-14T04:59:51;128.40;2252.80
54796;DHT22;40693;43.884;20.340;2023-03-14T05:02:46;128.40;2252.80
54796;DHT22;40693;43.884;20.340;2023-03-14T05:05:12;128.40;2252.80
54796;DHT22;40693;43.884;20.340;2023-03-14T05:07:37;128.40;2252.80
54796;DHT22;40693;43.884;20.340;2023-03-14T05:10:26;128.40;2252.80
54796;DHT22;40693;43.884;20.340;2023-03-14T05:13:08;128.50;2252.80
54796;DHT22;40693;43.884;20.340;2023-03-14T05:15:45;128.40;2252.80
54796;DHT22;40693;43.884;20.340;2023-03-14T05:18:56;128.30;2252.80
54796;DHT22;40693;43.884;20.340;2023-03-14T05:21:49;128.30;2252.80
54796;DHT22;40693;43.884;20.340;2023-03-14T05:24:55;128.40;2252.80
54796;DHT22;40693;43.884;20.340;2023-03-14T05:27:53;128.40;2252.80
54796;DHT22;40693;43.884;20.340;2023-03-14T05:30:19;128.40;2252.80
54796;DHT22;40693;43.884;20.340;2023-03-14T05:33:04;128.40;2252.80
54796;DHT22;40693;43.884;20.340;2023-03-14T05:35:56;128.40;2252.80
54796;DHT22;40693;43.884;20.340;2023-03-14T05:38:41;128.40;2252.80
54796;DHT22;40693;43.884;20.340;2023-03-14T05:41:27;128.40;2252.80
54796;DHT22;40693;43.884;20.340;2023-03-14T05:44:05;128.40;2252.80
54796;DHT22;40693;43.884;20.340;2023-03-14T05:46:31;128.30;2252.80
54796;DHT22;40693;43.884;20.340;2023-03-14T05:49:00;128.60;2252.80
54796;DHT22;40693;43.884;20.340;2023-03-14T05:51:26;128.30;2252.80
54796;DHT22;40693;43.884;20.340;2023-03-14T05:53:51;128.30;2252.80
54796;DHT22;40693;43.884;20.340;2023-03-14T05:56:17;128.40;2252.80
54796;DHT22;40693;43.884;20.340;2023-03-14T05:58:54;128.50;2252.80
54796;DHT22;40693;43.884;20.340;2023-03-14T06:01:30;128.50;2252.80
54796;DHT22;40693;43.884;20.340;2023-03-14T06:03:56;128.50;2252.80
54796;DHT22;40693;43.884;20.340;2023-03-14T06:06:22;128.70;2252.80
54796;DHT22;40693;43.884;20.340;2023-03-14T06:09:20;128.80;2252.80
54796;DHT22;40693;43.884;20.340;2023-03-14T06:11:55;128.80;2252.80
54796;DHT22;40693;43.884;20.340;2023-03-14T06:14:23;128.90;2252.80
54796;DHT22;40693;43.884;20.340;2023-03-14T06:17:17;153.60;2252.80
54796;DHT22;40693;43.884;20.340;2023-03-14T06:20:11;153.60;2252.80
54796;DHT22;40693;43.884;20.340;2023-03-14T06:22:37;153.80;2252.80
54796;DHT22;40693;43.884;20.340;2023-03-14T06:25:07;154.00;2252.80
54796;DHT22;40693;43.884;20.340;2023-03-14T06:27:34;154.00;2252.80
54796;DHT22;40693;43.884;20.340;2023-03-14T06:30:00;154.10;2252.80
54796;DHT22;40693;43.884;20.340;2023-03-14T06:35:26;154.30;2252.80
54796;DHT22;40693;43.884;20.340;2023-03-14T06:37:52;154.40;2252.80
54796;DHT22;40693;43.884;20.340;2023-03-14T06:40:18;179.20;2252.80
54796;DHT22;40693;43.884;20.340;2023-03-14T06:42:44;179.20;2252.80
54796;DHT22;40693;43.884;20.340;2023-03-14T06:45:10;154.50;2252.80
54796;DHT22;40693;43.884;20.340;2023-03-14T06:47:44;154.40;2252.80
54796;DHT22;40693;43.884;20.340;2023-03-14T06:50:16;179.30;2252.80
54796;DHT22;40693;43.884;20.340;2023-03-14T06:52:47;179.40;2252.80
54796;DHT22;40693;43.884;20.340;2023-03-14T06:55:16;179.60;2252.80
54796;DHT22;40693;43.884;20.340;2023-03-14T06:57:45;179.60;2252.80
54796;DHT22;40693;43.884;20.340;2023-03-14T07:00:26;179.80;2252.80
54796;DHT22;40693;43.884;20.340;2023-03-14T07:02:52;179.80;2252.80
54796;DHT22;40693;43.884;20.340;2023-03-14T07:05:20;180.00;2252.80
54796;DHT22;40693;43.884;20.340;2023-03-14T07:07:46;180.00;2252.80
54796;DHT22;40693;43.884;20.340;2023-03-14T07:10:15;180.10;2252.80
54796;DHT22;40693;43.884;20.340;2023-03-14T07:12:47;180.10;2252.80
54796;DHT22;40693;43.884;20.340;2023-03-14T07:15:16;204.80;2252.80
54796;DHT22;40693;43.884;20.340;2023-03-14T07:17:45;204.80;2252.80
54796;DHT22;40693;43.884;20.340;2023-03-14T07:20:14;204.80;2252.80
54796;DHT22;40693;43.884;20.340;2023-03-14T07:22:42;204.80;2252.80
54796;DHT22;40693;43.884;20.340;2023-03-14T07:25:11;204.90;2252.80
54796;DHT22;40693;43.884;20.340;2023-03-14T07:27:37;205.10;2252.80
54796;DHT22;40693;43.884;20.340;2023-03-14T07:30:04;205.20;2252.80
54796;DHT22;40693;43.884;20.340;2023-03-14T07:32:30;205.30;2252.80
54796;DHT22;40693;43.884;20.340;2023-03-14T07:34:55;205.40;2252.80
54796;DHT22;40693;43.884;20.340;2023-03-14T07:37:21;205.60;2252.80
54796;DHT22;40693;43.884;20.340;2023-03-14T07:39:52;205.50;2227.20
54796;DHT22;40693;43.884;20.340;2023-03-14T07:42:18;205.50;2227.20
54796;DHT22;40693;43.884;20.340;2023-03-14T07:44:43;205.50;2227.20
54796;DHT22;40693;43.884;20.340;2023-03-14T07:47:09;205.50;2201.60
54796;DHT22;40693;43.884;20.340;2023-03-14T07:49:46;205.60;2201.60
54796;DHT22;40693;43.884;20.340;2023-03-14T07:52:25;230.40;2227.20
54796;DHT22;40693;43.884;20.340;2023-03-14T07:54:53;230.60;2227.20
54796;DHT22;40693;43.884;20.340;2023-03-14T07:57:22;230.70;2201.60
54796;DHT22;40693;43.884;20.340;2023-03-14T07:59:56;230.80;2227.20
54796;DHT22;40693;43.884;20.340;2023-03-14T08:02:22;230.90;2176.00
54796;DHT22;40693;43.884;20.340;2023-03-14T08:04:49;231.00;2124.80
54796;DHT22;40693;43.884;20.340;2023-03-14T08:07:15;231.10;2124.80
54796;DHT22;40693;43.884;20.340;2023-03-14T08:12:22;231.20;2048.00
54796;DHT22;40693;43.884;20.340;2023-03-14T08:14:54;231.30;2022.40
54796;DHT22;40693;43.884;20.340;2023-03-14T08:20:32;231.30;1996.80
54796;DHT22;40693;43.884;20.340;2023-03-14T08:23:01;256.00;1920.00
54796;DHT22;40693;43.884;20.340;2023-03-14T08:25:27;256.10;1920.00
54796;DHT22;40693;43.884;20.340;2023-03-14T08:27:54;256.20;1920.00
54796;DHT22;40693;43.884;20.340;2023-03-14T08:30:21;256.20;1843.20
54796;DHT22;40693;43.884;20.340;2023-03-14T08:32:49;256.40;1868.80
54796;DHT22;40693;43.884;20.340;2023-03-14T08:35:20;256.60;1843.20
54796;DHT22;40693;43.884;20.340;2023-03-14T08:37:46;256.70;1792.00
54796;DHT22;40693;43.884;20.340;2023-03-14T08:40:12;256.90;1817.60
54796;DHT22;40693;43.884;20.340;2023-03-14T08:42:39;281.70;1843.20
54796;DHT22;40693;43.884;20.340;2023-03-14T08:45:07;281.90;1843.20
54796;DHT22;40693;43.884;20.340;2023-03-14T08:47:33;282.00;1817.60
54796;DHT22;40693;43.884;20.340;2023-03-14T08:49:59;282.20;1792.00
54796;DHT22;40693;43.884;20.340;2023-03-14T08:52:25;282.40;1766.40
54796;DHT22;40693;43.884;20.340;2023-03-14T08:54:51;282.20;1715.20
54796;DHT22;40693;43.884;20.340;2023-03-14T08:57:16;307.20;1715.20
54796;DHT22;40693;43.884;20.340;2023-03-14T08:59:42;307.30;1740.80
54796;DHT22;40693;43.884;20.340;2023-03-14T09:02:34;307.50;1689.60
54796;DHT22;40693;43.884;20.340;2023-03-14T09:05:21;307.60;1664.00
54796;DHT22;40693;43.884;20.340;2023-03-14T09:07:49;307.80;1689.60
54796;DHT22;40693;43.884;20.340;2023-03-14T09:10:59;308.00;1715.20
54796;DHT22;40693;43.884;20.340;2023-03-14T09:13:50;332.90;1740.80
54796;DHT22;40693;43.884;20.340;2023-03-14T09:16:15;333.10;1689.60
54796;DHT22;40693;43.884;20.340;2023-03-14T09:18:41;333.30;1664.00
54796;DHT22;40693;43.884;20.340;2023-03-14T09:21:07;333.40;1638.40
54796;DHT22;40693;43.884;20.340;2023-03-14T09:23:36;333.40;1664.00
54796;DHT22;40693;43.884;20.340;2023-03-14T09:26:02;333.40;1612.80
54796;DHT22;40693;43.884;20.340;2023-03-14T09:28:31;333.50;1587.20
54796;DHT22;40693;43.884;20.340;2023-03-14T09:30:56;333.60;1587.20
54796;DHT22;40693;43.884;20.340;2023-03-14T09:33:45;333.70;1561.60
54796;DHT22;40693;43.884;20.340;2023-03-14T09:36:14;333.70;1561.60
54796;DHT22;40693;43.884;20.340;2023-03-14T09:38:40;333.70;1561.60
54796;DHT22;40693;43.884;20.340;2023-03-14T09:47:07;333.60;1587.20
54796;DHT22;40693;43.884;20.340;2023-03-14T09:49:45;358.40;1561.60
54796;DHT22;40693;43.884;20.340;2023-03-14T09:55:10;358.80;1561.60
54796;DHT22;40693;43.884;20.340;2023-03-14T09:57:37;359.00;1587.20
54796;DHT22;40693;43.884;20.340;2023-03-14T10:00:19;359.00;1536.00
54796;DHT22;40693;43.884;20.340;2023-03-14T10:03:33;359.20;1510.40
54796;DHT22;40693;43.884;20.340;2023-03-14T10:06:01;359.20;1587.20
54796;DHT22;40693;43.884;20.340;2023-03-14T10:08:29;359.30;1638.40
54796;DHT22;40693;43.884;20.340;2023-03-14T10:11:01;359.30;1536.00
54796;DHT22;40693;43.884;20.340;2023-03-14T10:13:29;384.00;1510.40
54796;DHT22;40693;43.884;20.340;2023-03-14T10:16:00;384.10;1510.40
54796;DHT22;40693;43.884;20.340;2023-03-14T10:18:27;384.20;1561.60
54796;DHT22;40693;43.884;20.340;2023-03-14T10:24:29;384.50;1536.00
54796;DHT22;40693;43.884;20.340;2023-03-14T10:29:28;384.80;1484.80
54796;DHT22;40693;43.884;20.340;2023-03-14T10:34:35;409.70;1484.80
54796;DHT22;40693;43.884;20.340;2023-03-14T10:39:50;410.00;1510.40
54796;DHT22;40693;43.884;20.340;2023-03-14T10:42:28;410.00;1484.80
54796;DHT22;40693;43.884;20.340;2023-03-14T10:45:04;410.10;1484.80
54796;DHT22;40693;43.884;20.340;2023-03-14T10:47:38;410.10;1459.20
54796;DHT22;40693;43.884;20.340;2023-03-14T10:50:32;410.30;1459.20
54796;DHT22;40693;43.884;20.340;2023-03-14T10:53:02;410.40;1459.20
54796;DHT22;40693;43.884;20.340;2023-03-14T10:55:43;435.20;1484.80
54796;DHT22;40693;43.884;20.340;2023-03-14T10:58:24;435.30;1484.80
54796;DHT22;40693;43.884;20.340;2023-03-14T11:03:42;435.40;1459.20
54796;DHT22;40693;43.884;20.340;2023-03-14T11:06:21;435.50;1433.60
54796;DHT22;40693;43.884;20.340;2023-03-14T11:11:26;435.60;1408.00
54796;DHT22;40693;43.884;20.340;2023-03-14T11:16:54;435.60;1433.60
54796;DHT22;40693;43.884;20.340;2023-03-14T11:22:23;435.80;1408.00
54796;DHT22;40693;43.884;20.340;2023-03-14T11:27:56;435.90;1382.40
54796;DHT22;40693;43.884;20.340;2023-03-14T11:35:33;460.90;1433.60
54796;DHT22;40693;43.884;20.340;2023-03-14T11:41:31;461.20;1433.60
54796;DHT22;40693;43.884;20.340;2023-03-14T11:44:03;461.40;1408.00
54796;DHT22;40693;43.884;20.340;2023-03-14T11:46:59;461.60;1382.40
54796;DHT22;40693;43.884;20.340;2023-03-14T11:53:01;486.40;1356.80
54796;DHT22;40693;43.884;20.340;2023-03-14T11:55:38;461.70;1331.20
54796;DHT22;40693;43.884;20.340;2023-03-14T11:58:27;486.40;1331.20
54796;DHT22;40693;43.884;20.340;2023-03-14T12:00:56;486.40;1331.20
54796;DHT22;40693;43.884;20.340;2023-03-14T12:03:34;486.40;1280.00
54796;DHT22;40693;43.884;20.340;2023-03-14T12:06:08;486.40;1305.60
54796;DHT22;40693;43.884;20.340;2023-03-14T12:08:55;486.40;1331.20
54796;DHT22;40693;43.884;20.340;2023-03-14T12:11:35;486.60;1331.20
54796;DHT22;40693;43.884;20.340;2023-03-14T12:14:03;486.90;1280.00
54796;DHT22;40693;43.884;20.340;2023-03-14T12:16:46;486.90;1280.00
54796;DHT22;40693;43.884;20.340;2023-03-14T12:19:27;487.00;1280.00
54796;DHT22;40693;43.884;20.340;2023-03-14T12:24:24;512.00;1331.20
54796;DHT22;40693;43.884;20.340;2023-03-14T12:26:56;512.10;1356.80
54796;DHT22;40693;43.884;20.340;2023-03-14T12:29:24;512.20;1280.00
54796;DHT22;40693;43.884;20.340;2023-03-14T12:34:31;512.40;1254.40
54796;DHT22;40693;43.884;20.340;2023-03-14T12:37:10;512.50;1228.80
54796;DHT22;40693;43.884;20.340;2023-03-14T12:43:02;512.70;1228.80
54796;DHT22;40693;43.884;20.340;2023-03-14T12:45:33;537.60;1203.20
54796;DHT22;40693;43.884;20.340;2023-03-14T12:48:19;537.60;1228.80
54796;DHT22;40693;43.884;20.340;2023-03-14T12:50:54;537.70;1254.40
54796;DHT22;40693;43.884;20.340;2023-03-14T12:53:33;537.90;1228.80
54796;DHT22;40693;43.884;20.340;2023-03-14T12:56:09;537.90;1203.20
54796;DHT22;40693;43.884;20.340;2023-03-14T12:59:10;537.90;1177.60
54796;DHT22;40693;43.884;20.340;2023-03-14T13:01:55;538.10;1177.60
54796;DHT22;40693;43.884;20.340;2023-03-14T13:04:34;538.20;1203.20
54796;DHT22;40693;43.884;20.340;2023-03-14T13:07:02;538.40;1177.60
54796;DHT22;40693;43.884;20.340;2023-03-14T13:12:09;538.50;1152.00
54796;DHT22;40693;43.884;20.340;2023-03-14T13:14:40;563.20;1177.60
54796;DHT22;40693;43.884;20.340;2023-03-14T13:17:10;563.20;1177.60
54796;DHT22;40693;43.884;20.340;2023-03-14T13:19:38;538.50;1152.00
54796;DHT22;40693;43.884;20.340;2023-03-14T13:22:50;563.20;1177.60
54796;DHT22;40693;43.884;20.340;2023-03-14T13:25:02;563.20;1203.20
54796;DHT22;40693;43.884;20.340;2023-03-14T13:27:32;563.20;1152.00
54796;DHT22;40693;43.884;20.340;2023-03-14T13:29:57;563.20;1177.60
54796;DHT22;40693;43.884;20.340;2023-03-14T13:32:28;563.20;1152.00
54796;DHT22;40693;43.884;20.340;2023-03-14T13:34:59;563.20;1177.60
54796;DHT22;40693;43.884;20.340;2023-03-14T13:37:26;563.20;1177.60
54796;DHT22;40693;43.884;20.340;2023-03-14T13:39:56;563.30;1152.00
54796;DHT22;40693;43.884;20.340;2023-03-14T13:42:27;563.30;1177.60
54796;DHT22;40693;43.884;20.340;2023-03-14T13:44:54;563.40;1203.20
54796;DHT22;40693;43.884;20.340;2023-03-14T13:47:24;563.40;1177.60
54796;DHT22;40693;43.884;20.340;2023-03-14T13:49:50;563.60;1152.00
54796;DHT22;40693;43.884;20.340;2023-03-14T13:52:35;563.50;1152.00
54796;DHT22;40693;43.884;20.340;2023-03-14T13:55:02;563.50;1152.00
54796;DHT22;40693;43.884;20.340;2023-03-14T13:57:53;563.40;1152.00
54796;DHT22;40693;43.884;20.340;2023-03-14T14:00:24;563.20;1152.00
54796;DHT22;40693;43.884;20.340;2023-03-14T14:02:57;538.50;1152.00
54796;DHT22;40693;43.884;20.340;2023-03-14T14:05:28;538.50;1152.00
54796;DHT22;40693;43.884;20.340;2023-03-14T14:07:55;538.40;1177.60
54796;DHT22;40693;43.884;20.340;2023-03-14T14:10:22;538.20;1177.60
54796;DHT22;40693;43.884;20.340;2023-03-14T14:13:00;538.30;1152.00
54796;DHT22;40693;43.884;20.340;2023-03-14T14:15:29;538.30;1152.00
54796;DHT22;40693;43.884;20.340;2023-03-14T14:18:09;538.20;1152.00
54796;DHT22;40693;43.884;20.340;2023-03-14T14:20:41;538.10;1152.00
54796;DHT22;40693;43.884;20.340;2023-03-14T14:23:20;538.00;1152.00
54796;DHT22;40693;43.884;20.340;2023-03-14T14:25:51;538.00;1152.00
54796;DHT22;40693;43.884;20.340;2023-03-14T14:28:35;537.90;1177.60
54796;DHT22;40693;43.884;20.340;2023-03-14T14:31:22;537.90;1177.60
54796;DHT22;40693;43.884;20.340;2023-03-14T14:34:02;537.90;1203.20
54796;DHT22;40693;43.884;20.340;2023-03-14T14:39:20;537.80;1152.00
54796;DHT22;40693;43.884;20.340;2023-03-14T14:41:49;537.70;1152.00
54796;DHT22;40693;43.884;20.340;2023-03-14T14:44:20;537.70;1177.60
54796;DHT22;40693;43.884;20.340;2023-03-14T14:46:46;537.70;1177.60
54796;DHT22;40693;43.884;20.340;2023-03-14T14:49:14;537.70;1177.60
54796;DHT22;40693;43.884;20.340;2023-03-14T14:51:48;537.70;1177.60
54796;DHT22;40693;43.884;20.340;2023-03-14T14:54:21;537.60;1177.60
54796;DHT22;40693;43.884;20.340;2023-03-14T14:57:03;512.90;1152.00
54796;DHT22;40693;43.884;20.340;2023-03-14T14:59:29;512.90;1203.20
54796;DHT22;40693;43.884;20.340;2023-03-14T15:02:00;512.90;1203.20
54796;DHT22;40693;43.884;20.340;2023-03-14T15:04:26;512.90;1203.20
54796;DHT22;40693;43.884;20.340;2023-03-14T15:06:52;512.90;1228.80
54796;DHT22;40693;43.884;20.340;2023-03-14T15:09:19;512.90;1254.40
54796;DHT22;40693;43.884;20.340;2023-03-14T15:11:46;512.90;1254.40
54796;DHT22;40693;43.884;20.340;2023-03-14T15:14:12;512.90;1254.40
54796;DHT22;40693;43.884;20.340;2023-03-14T15:16:39;537.70;1280.00
54796;DHT22;40693;43.884;20.340;2023-03-14T15:19:14;512.90;1254.40
54796;DHT22;40693;43.884;20.340;2023-03-14T15:21:41;512.90;1254.40
54796;DHT22;40693;43.884;20.340;2023-03-14T15:24:08;512.80;1228.80
54796;DHT22;40693;43.884;20.340;2023-03-14T15:26:34;512.70;1203.20
54796;DHT22;40693;43.884;20.340;2023-03-14T15:29:00;512.70;1228.80
54796;DHT22;40693;43.884;20.340;2023-03-14T15:31:26;512.70;1228.80
54796;DHT22;40693;43.884;20.340;2023-03-14T15:33:51;512.60;1254.40
54796;DHT22;40693;43.884;20.340;2023-03-14T15:36:27;512.60;1280.00
54796;DHT22;40693;43.884;20.340;2023-03-14T15:38:55;512.50;1254.40
54796;DHT22;40693;43.884;20.340;2023-03-14T15:41:22;512.40;1280.00
54796;DHT22;40693;43.884;20.340;2023-03-14T15:43:48;512.30;1280.00
54796;DHT22;40693;43.884;20.340;2023-03-14T15:46:14;512.30;1305.60
54796;DHT22;40693;43.884;20.340;2023-03-14T15:48:43;512.20;1305.60
54796;DHT22;40693;43.884;20.340;2023-03-14T15:53:54;512.20;1280.00
54796;DHT22;40693;43.884;20.340;2023-03-14T15:56:20;512.50;1280.00
54796;DHT22;40693;43.884;20.340;2023-03-14T15:58:49;512.60;1280.00
54796;DHT22;40693;43.884;20.340;2023-03-14T16:01:16;512.70;1280.00
54796;DHT22;40693;43.884;20.340;2023-03-14T16:03:43;512.70;1254.40
54796;DHT22;40693;43.884;20.340;2023-03-14T16:06:10;512.70;1305.60
54796;DHT22;40693;43.884;20.340;2023-03-14T16:08:36;512.70;1280.00
54796;DHT22;40693;43.884;20.340;2023-03-14T16:11:01;512.60;1305.60
54796;DHT22;40693;43.884;20.340;2023-03-14T16:13:27;512.60;1254.40
54796;DHT22;40693;43.884;20.340;2023-03-14T16:16:02;512.60;1177.60
54796;DHT22;40693;43.884;20.340;2023-03-14T16:18:33;512.70;998.40
54796;DHT22;40693;43.884;20.340;2023-03-14T16:21:05;512.60;947.20
54796;DHT22;40693;43.884;20.340;2023-03-14T16:23:31;512.60;947.20
54796;DHT22;40693;43.884;20.340;2023-03-14T16:25:58;512.60;947.20
54796;DHT22;40693;43.884;20.340;2023-03-14T16:28:24;512.50;947.20
54796;DHT22;40693;43.884;20.340;2023-03-14T16:30:51;512.50;947.20
54796;DHT22;40693;43.884;20.340;2023-03-14T16:33:19;512.40;947.20
54796;DHT22;40693;43.884;20.340;2023-03-14T16:35:56;512.30;947.20
54796;DHT22;40693;43.884;20.340;2023-03-14T16:38:23;512.30;947.20
54796;DHT22;40693;43.884;20.340;2023-03-14T16:41:00;512.30;947.20
54796;DHT22;40693;43.884;20.340;2023-03-14T16:43:29;512.20;947.20
54796;DHT22;40693;43.884;20.340;2023-03-14T16:45:58;512.20;947.20
54796;DHT22;40693;43.884;20.340;2023-03-14T16:48:28;512.20;972.80
54796;DHT22;40693;43.884;20.340;2023-03-14T16:50:54;512.20;972.80
54796;DHT22;40693;43.884;20.340;2023-03-14T16:53:20;512.10;972.80
54796;DHT22;40693;43.884;20.340;2023-03-14T16:55:46;512.10;947.20
54796;DHT22;40693;43.884;20.340;2023-03-14T16:58:13;512.00;998.40
54796;DHT22;40693;43.884;20.340;2023-03-14T17:00:39;512.00;1024.00
54796;DHT22;40693;43.884;20.340;2023-03-14T17:03:05;487.30;998.40
54796;DHT22;40693;43.884;20.340;2023-03-14T17:05:31;487.10;1049.60
54796;DHT22;40693;43.884;20.340;2023-03-14T17:07:57;487.00;998.40
54796;DHT22;40693;43.884;20.340;2023-03-14T17:10:24;486.90;1049.60
54796;DHT22;40693;43.884;20.340;2023-03-14T17:12:50;486.80;1075.20
54796;DHT22;40693;43.884;20.340;2023-03-14T17:15:15;486.60;1024.00
54796;DHT22;40693;43.884;20.340;2023-03-14T17:17:43;486.60;998.40
54796;DHT22;40693;43.884;20.340;2023-03-14T17:20:14;486.60;1024.00
54796;DHT22;40693;43.884;20.340;2023-03-14T17:22:53;486.50;1049.60
54796;DHT22;40693;43.884;20.340;2023-03-14T17:25:21;486.40;1049.60
54796;DHT22;40693;43.884;20.340;2023-03-14T17:27:50;461.70;1100.80
54796;DHT22;40693;43.884;20.340;2023-03-14T17:30:16;461.70;1100.80